sensor_id;sensor_type;location;lat;lon;timestamp;P1;durP1;ratioP1;P2;durP2;ratioP2
82159;SDS011;71734;50.876;7.372;2024-02-21T00:01:55;10.45;;;3.65;;
82159;SDS011;71734;50.876;7.372;2024-02-21T00:04:22;10.60;;;3.70;;
82159;SDS011;71734;50.876;7.372;2024-02-21T00:06:48;10.02;;;3.33;;
82159;SDS011;71734;50.876;7.372;2024-02-21T00:09:15;8.88;;;3.22;;
82159;SDS011;71734;50.876;7.372;2024-02-21T00:11:41;11.25;;;3.80;;
82159;SDS011;71734;50.876;7.372;2024-02-21T00:14:08;9.60;;;3.08;;
82159;SDS011;71734;50.876;7.372;2024-02-21T00:16:34;11.90;;;3.72;;
82159;SDS011;71734;50.876;7.372;2024-02-21T00:19:02;10.25;;;3.45;;
82159;SDS011;71734;50.876;7.372;2024-02-21T00:21:29;11.15;;;3.85;;
82159;SDS011;71734;50.876;7.372;2024-02-21T00:23:55;11.23;;;3.50;;
82159;SDS011;71734;50.876;7.372;2024-02-21T00:26:22;15.00;;;3.83;;
82159;SDS011;71734;50.876;7.372;2024-02-21T00:28:49;11.02;;;3.80;;
82159;SDS011;71734;50.876;7.372;2024-02-21T00:31:15;10.60;;;3.20;;
82159;SDS011;71734;50.876;7.372;2024-02-21T00:33:42;12.77;;;3.30;;
82159;SDS011;71734;50.876;7.372;2024-02-21T00:36:10;10.82;;;3.50;;
82159;SDS011;71734;50.876;7.372;2024-02-21T00:38:36;10.25;;;3.03;;
82159;SDS011;71734;50.876;7.372;2024-02-21T00:41:03;9.90;;;2.88;;
82159;SDS011;71734;50.876;7.372;2024-02-21T00:43:29;9.60;;;3.45;;
82159;SDS011;71734;50.876;7.372;2024-02-21T00:45:56;11.05;;;3.78;;
82159;SDS011;71734;50.876;7.372;2024-02-21T00:48:23;12.70;;;4.10;;
82159;SDS011;71734;50.876;7.372;2024-02-21T00:50:49;12.48;;;3.20;;
82159;SDS011;71734;50.876;7.372;2024-02-21T00:53:18;11.48;;;3.47;;
82159;SDS011;71734;50.876;7.372;2024-02-21T00:55:44;10.32;;;3.20;;
82159;SDS011;71734;50.876;7.372;2024-02-21T00:58:11;13.20;;;4.00;;
82159;SDS011;71734;50.876;7.372;2024-02-21T01:00:37;11.30;;;3.95;;
82159;SDS011;71734;50.876;7.372;2024-02-21T01:03:04;12.30;;;3.58;;
82159;SDS011;71734;50.876;7.372;2024-02-21T01:05:30;12.10;;;3.63;;
82159;SDS011;71734;50.876;7.372;2024-02-21T01:07:57;10.18;;;3.42;;
82159;SDS011;71734;50.876;7.372;2024-02-21T01:10:25;12.88;;;3.83;;
82159;SDS011;71734;50.876;7.372;2024-02-21T01:12:51;12.13;;;3.58;;
82159;SDS011;71734;50.876;7.372;2024-02-21T01:15:18;10.07;;;3.53;;
82159;SDS011;71734;50.876;7.372;2024-02-21T01:17:45;12.85;;;3.85;;
82159;SDS011;71734;50.876;7.372;2024-02-21T01:20:11;12.38;;;3.47;;
82159;SDS011;71734;50.876;7.372;2024-02-21T01:22:38;10.48;;;3.92;;
82159;SDS011;71734;50.876;7.372;2024-02-21T01:25:04;15.73;;;4.55;;
82159;SDS011;71734;50.876;7.372;2024-02-21T01:27:33;11.20;;;3.85;;
82159;SDS011;71734;50.876;7.372;2024-02-21T01:29:59;11.60;;;3.70;;
82159;SDS011;71734;50.876;7.372;2024-02-21T01:32:26;11.38;;;3.55;;
82159;SDS011;71734;50.876;7.372;2024-02-21T01:34:52;12.23;;;4.25;;
82159;SDS011;71734;50.876;7.372;2024-02-21T01:37:19;11.23;;;4.25;;
82159;SDS011;71734;50.876;7.372;2024-02-21T01:39:45;10.82;;;3.63;;
82159;SDS011;71734;50.876;7.372;2024-02-21T01:42:12;11.23;;;3.90;;
82159;SDS011;71734;50.876;7.372;2024-02-21T01:44:40;7.93;;;2.97;;
82159;SDS011;71734;50.876;7.372;2024-02-21T01:47:06;7.95;;;3.28;;
82159;SDS011;71734;50.876;7.372;2024-02-21T01:49:33;11.68;;;4.20;;
82159;SDS011;71734;50.876;7.372;2024-02-21T01:52:00;9.95;;;3.20;;
82159;SDS011;71734;50.876;7.372;2024-02-21T01:54:28;11.70;;;3.92;;
82159;SDS011;71734;50.876;7.372;2024-02-21T01:56:55;10.45;;;3.38;;
82159;SDS011;71734;50.876;7.372;2024-02-21T01:59:22;12.05;;;3.78;;
82159;SDS011;71734;50.876;7.372;2024-02-21T02:01:51;10.02;;;3.65;;
82159;SDS011;71734;50.876;7.372;2024-02-21T02:04:18;12.23;;;4.32;;
82159;SDS011;71734;50.876;7.372;2024-02-21T02:06:46;10.52;;;3.25;;
82159;SDS011;71734;50.876;7.372;2024-02-21T02:09:13;13.18;;;3.83;;
82159;SDS011;71734;50.876;7.372;2024-02-21T02:11:40;10.27;;;3.28;;
82159;SDS011;71734;50.876;7.372;2024-02-21T02:14:06;11.95;;;3.90;;
82159;SDS011;71734;50.876;7.372;2024-02-21T02:16:33;11.35;;;3.55;;
82159;SDS011;71734;50.876;7.372;2024-02-21T02:19:00;10.52;;;3.63;;
82159;SDS011;71734;50.876;7.372;2024-02-21T02:21:29;12.63;;;3.97;;
82159;SDS011;71734;50.876;7.372;2024-02-21T02:23:59;11.73;;;3.35;;
82159;SDS011;71734;50.876;7.372;2024-02-21T02:26:26;13.43;;;3.92;;
82159;SDS011;71734;50.876;7.372;2024-02-21T02:28:53;12.23;;;3.05;;
82159;SDS011;71734;50.876;7.372;2024-02-21T02:31:19;10.77;;;3.80;;
82159;SDS011;71734;50.876;7.372;2024-02-21T02:33:46;12.65;;;3.63;;
82159;SDS011;71734;50.876;7.372;2024-02-21T02:36:13;10.73;;;3.47;;
82159;SDS011;71734;50.876;7.372;2024-02-21T02:38:39;9.52;;;3.80;;
82159;SDS011;71734;50.876;7.372;2024-02-21T02:41:07;10.80;;;3.30;;
82159;SDS011;71734;50.876;7.372;2024-02-21T02:43:34;9.63;;;3.08;;
82159;SDS011;71734;50.876;7.372;2024-02-21T02:46:01;9.32;;;3.10;;
82159;SDS011;71734;50.876;7.372;2024-02-21T02:48:28;11.23;;;2.92;;
82159;SDS011;71734;50.876;7.372;2024-02-21T02:50:55;10.40;;;3.30;;
82159;SDS011;71734;50.876;7.372;2024-02-21T02:53:21;9.30;;;3.28;;
82159;SDS011;71734;50.876;7.372;2024-02-21T02:55:48;9.75;;;3.40;;
82159;SDS011;71734;50.876;7.372;2024-02-21T02:58:16;10.90;;;2.97;;
82159;SDS011;71734;50.876;7.372;2024-02-21T03:00:42;9.48;;;3.17;;
82159;SDS011;71734;50.876;7.372;2024-02-21T03:03:08;10.32;;;3.00;;
82159;SDS011;71734;50.876;7.372;2024-02-21T03:05:35;11.25;;;3.35;;
82159;SDS011;71734;50.876;7.372;2024-02-21T03:08:02;12.63;;;3.35;;
82159;SDS011;71734;50.876;7.372;2024-02-21T03:10:31;9.05;;;3.20;;
82159;SDS011;71734;50.876;7.372;2024-02-21T03:12:58;11.57;;;3.78;;
82159;SDS011;71734;50.876;7.372;2024-02-21T03:15:26;10.38;;;3.40;;
82159;SDS011;71734;50.876;7.372;2024-02-21T03:17:52;9.45;;;2.95;;
82159;SDS011;71734;50.876;7.372;2024-02-21T03:20:19;9.50;;;3.42;;
82159;SDS011;71734;50.876;7.372;2024-02-21T03:22:45;9.25;;;3.33;;
82159;SDS011;71734;50.876;7.372;2024-02-21T03:25:12;12.68;;;3.80;;
82159;SDS011;71734;50.876;7.372;2024-02-21T03:27:40;8.45;;;2.90;;
82159;SDS011;71734;50.876;7.372;2024-02-21T03:30:07;11.55;;;3.25;;
82159;SDS011;71734;50.876;7.372;2024-02-21T03:32:35;10.10;;;3.30;;
82159;SDS011;71734;50.876;7.372;2024-02-21T03:35:04;10.27;;;2.70;;
82159;SDS011;71734;50.876;7.372;2024-02-21T03:37:31;9.63;;;2.92;;
82159;SDS011;71734;50.876;7.372;2024-02-21T03:39:57;9.00;;;3.35;;
82159;SDS011;71734;50.876;7.372;2024-02-21T03:42:23;8.73;;;2.75;;
82159;SDS011;71734;50.876;7.372;2024-02-21T03:44:50;10.60;;;2.90;;
82159;SDS011;71734;50.876;7.372;2024-02-21T03:47:17;10.50;;;3.05;;
82159;SDS011;71734;50.876;7.372;2024-02-21T03:49:45;8.63;;;2.72;;
82159;SDS011;71734;50.876;7.372;2024-02-21T03:52:11;10.75;;;3.35;;
82159;SDS011;71734;50.876;7.372;2024-02-21T03:54:38;9.05;;;2.88;;
82159;SDS011;71734;50.876;7.372;2024-02-21T03:57:04;10.48;;;3.42;;
82159;SDS011;71734;50.876;7.372;2024-02-21T03:59:31;16.73;;;3.53;;
82159;SDS011;71734;50.876;7.372;2024-02-21T04:01:57;10.88;;;3.47;;
82159;SDS011;71734;50.876;7.372;2024-02-21T04:04:24;10.10;;;3.40;;
82159;SDS011;71734;50.876;7.372;2024-02-21T04:06:52;10.73;;;3.17;;
82159;SDS011;71734;50.876;7.372;2024-02-21T04:09:19;11.93;;;3.58;;
82159;SDS011;71734;50.876;7.372;2024-02-21T04:11:45;10.43;;;3.15;;
82159;SDS011;71734;50.876;7.372;2024-02-21T04:14:12;9.25;;;2.80;;
82159;SDS011;71734;50.876;7.372;2024-02-21T04:16:38;8.23;;;2.88;;
82159;SDS011;71734;50.876;7.372;2024-02-21T04:19:05;10.93;;;2.88;;
82159;SDS011;71734;50.876;7.372;2024-02-21T04:21:32;8.35;;;2.90;;
82159;SDS011;71734;50.876;7.372;2024-02-21T04:24:00;9.25;;;2.80;;
82159;SDS011;71734;50.876;7.372;2024-02-21T04:26:27;11.65;;;2.95;;
82159;SDS011;71734;50.876;7.372;2024-02-21T04:28:53;16.58;;;3.58;;
82159;SDS011;71734;50.876;7.372;2024-02-21T04:31:20;9.45;;;3.00;;
82159;SDS011;71734;50.876;7.372;2024-02-21T04:33:46;11.50;;;2.85;;
82159;SDS011;71734;50.876;7.372;2024-02-21T04:36:13;10.55;;;2.88;;
82159;SDS011;71734;50.876;7.372;2024-02-21T04:38:39;10.20;;;2.95;;
82159;SDS011;71734;50.876;7.372;2024-02-21T04:41:07;9.88;;;3.00;;
82159;SDS011;71734;50.876;7.372;2024-02-21T04:43:34;11.68;;;3.25;;
82159;SDS011;71734;50.876;7.372;2024-02-21T04:46:00;12.82;;;3.40;;
82159;SDS011;71734;50.876;7.372;2024-02-21T04:48:27;11.07;;;2.95;;
82159;SDS011;71734;50.876;7.372;2024-02-21T04:50:54;10.30;;;3.25;;
82159;SDS011;71734;50.876;7.372;2024-02-21T04:53:20;9.23;;;2.70;;
82159;SDS011;71734;50.876;7.372;2024-02-21T04:55:47;9.40;;;3.00;;
82159;SDS011;71734;50.876;7.372;2024-02-21T04:58:15;11.52;;;3.10;;
82159;SDS011;71734;50.876;7.372;2024-02-21T05:00:41;8.55;;;2.75;;
82159;SDS011;71734;50.876;7.372;2024-02-21T05:03:08;11.20;;;3.22;;
82159;SDS011;71734;50.876;7.372;2024-02-21T05:05:34;10.23;;;3.05;;
82159;SDS011;71734;50.876;7.372;2024-02-21T05:08:01;11.45;;;3.35;;
82159;SDS011;71734;50.876;7.372;2024-02-21T05:10:27;10.43;;;2.88;;
82159;SDS011;71734;50.876;7.372;2024-02-21T05:12:54;10.02;;;2.65;;
82159;SDS011;71734;50.876;7.372;2024-02-21T05:15:22;10.25;;;3.03;;
82159;SDS011;71734;50.876;7.372;2024-02-21T05:17:49;8.98;;;2.70;;
82159;SDS011;71734;50.876;7.372;2024-02-21T05:20:15;10.77;;;2.92;;
82159;SDS011;71734;50.876;7.372;2024-02-21T05:22:42;10.27;;;2.90;;
82159;SDS011;71734;50.876;7.372;2024-02-21T05:25:09;9.95;;;2.80;;
82159;SDS011;71734;50.876;7.372;2024-02-21T05:27:35;9.52;;;2.92;;
82159;SDS011;71734;50.876;7.372;2024-02-21T05:30:04;12.55;;;3.20;;
82159;SDS011;71734;50.876;7.372;2024-02-21T05:32:32;9.60;;;2.72;;
82159;SDS011;71734;50.876;7.372;2024-02-21T05:34:59;10.27;;;2.63;;
82159;SDS011;71734;50.876;7.372;2024-02-21T05:37:25;12.15;;;3.15;;
82159;SDS011;71734;50.876;7.372;2024-02-21T05:39:52;9.73;;;3.05;;
82159;SDS011;71734;50.876;7.372;2024-02-21T05:42:18;11.57;;;2.63;;
82159;SDS011;71734;50.876;7.372;2024-02-21T05:44:45;7.78;;;2.75;;
82159;SDS011;71734;50.876;7.372;2024-02-21T05:47:11;8.63;;;2.58;;
82159;SDS011;71734;50.876;7.372;2024-02-21T05:49:41;8.30;;;2.35;;
82159;SDS011;71734;50.876;7.372;2024-02-21T05:52:08;9.50;;;2.60;;
82159;SDS011;71734;50.876;7.372;2024-02-21T05:54:37;8.18;;;2.38;;
82159;SDS011;71734;50.876;7.372;2024-02-21T05:57:03;7.90;;;2.35;;
82159;SDS011;71734;50.876;7.372;2024-02-21T05:59:30;8.30;;;2.53;;
82159;SDS011;71734;50.876;7.372;2024-02-21T06:01:56;8.07;;;2.47;;
82159;SDS011;71734;50.876;7.372;2024-02-21T06:04:23;9.40;;;2.38;;
82159;SDS011;71734;50.876;7.372;2024-02-21T06:06:51;10.05;;;2.50;;
82159;SDS011;71734;50.876;7.372;2024-02-21T06:09:18;8.93;;;2.63;;
82159;SDS011;71734;50.876;7.372;2024-02-21T06:11:44;9.13;;;2.72;;
82159;SDS011;71734;50.876;7.372;2024-02-21T06:14:11;8.00;;;2.55;;
82159;SDS011;71734;50.876;7.372;2024-02-21T06:16:37;6.80;;;2.45;;
82159;SDS011;71734;50.876;7.372;2024-02-21T06:19:04;7.88;;;2.40;;
82159;SDS011;71734;50.876;7.372;2024-02-21T06:21:36;8.93;;;2.70;;
82159;SDS011;71734;50.876;7.372;2024-02-21T06:26:39;9.60;;;2.70;;
82159;SDS011;71734;50.876;7.372;2024-02-21T06:29:06;9.98;;;2.50;;
82159;SDS011;71734;50.876;7.372;2024-02-21T06:31:34;9.00;;;2.47;;
82159;SDS011;71734;50.876;7.372;2024-02-21T06:34:01;8.18;;;2.78;;
82159;SDS011;71734;50.876;7.372;2024-02-21T06:36:28;10.25;;;2.55;;
82159;SDS011;71734;50.876;7.372;2024-02-21T06:38:58;9.10;;;2.40;;
82159;SDS011;71734;50.876;7.372;2024-02-21T06:43:58;9.55;;;2.50;;
82159;SDS011;71734;50.876;7.372;2024-02-21T06:46:25;10.65;;;2.70;;
82159;SDS011;71734;50.876;7.372;2024-02-21T06:48:53;9.80;;;2.55;;
82159;SDS011;71734;50.876;7.372;2024-02-21T06:51:21;7.63;;;2.47;;
82159;SDS011;71734;50.876;7.372;2024-02-21T06:53:47;9.43;;;2.50;;
82159;SDS011;71734;50.876;7.372;2024-02-21T06:56:14;9.63;;;2.47;;
82159;SDS011;71734;50.876;7.372;2024-02-21T06:58:41;9.90;;;2.47;;
82159;SDS011;71734;50.876;7.372;2024-02-21T07:01:09;7.35;;;2.70;;
82159;SDS011;71734;50.876;7.372;2024-02-21T07:03:36;10.77;;;2.85;;
82159;SDS011;71734;50.876;7.372;2024-02-21T07:06:03;8.25;;;2.13;;
82159;SDS011;71734;50.876;7.372;2024-02-21T07:08:30;9.52;;;2.85;;
82159;SDS011;71734;50.876;7.372;2024-02-21T07:10:56;8.48;;;2.25;;
82159;SDS011;71734;50.876;7.372;2024-02-21T07:13:23;8.30;;;2.50;;
82159;SDS011;71734;50.876;7.372;2024-02-21T07:15:49;9.30;;;2.25;;
82159;SDS011;71734;50.876;7.372;2024-02-21T07:18:17;6.97;;;2.05;;
82159;SDS011;71734;50.876;7.372;2024-02-21T07:20:44;9.38;;;2.20;;
82159;SDS011;71734;50.876;7.372;2024-02-21T07:23:11;10.43;;;2.50;;
82159;SDS011;71734;50.876;7.372;2024-02-21T07:25:38;10.38;;;2.25;;
82159;SDS011;71734;50.876;7.372;2024-02-21T07:28:04;7.15;;;2.38;;
82159;SDS011;71734;50.876;7.372;2024-02-21T07:30:31;11.35;;;2.55;;
82159;SDS011;71734;50.876;7.372;2024-02-21T07:32:58;9.63;;;2.30;;
82159;SDS011;71734;50.876;7.372;2024-02-21T07:35:26;10.07;;;2.28;;
82159;SDS011;71734;50.876;7.372;2024-02-21T07:37:52;8.10;;;2.40;;
82159;SDS011;71734;50.876;7.372;2024-02-21T07:40:19;11.55;;;2.65;;
82159;SDS011;71734;50.876;7.372;2024-02-21T07:42:45;8.80;;;2.50;;
82159;SDS011;71734;50.876;7.372;2024-02-21T07:45:12;9.45;;;2.33;;
82159;SDS011;71734;50.876;7.372;2024-02-21T07:47:38;8.13;;;2.90;;
82159;SDS011;71734;50.876;7.372;2024-02-21T07:50:05;9.85;;;2.60;;
82159;SDS011;71734;50.876;7.372;2024-02-21T07:52:35;9.00;;;2.65;;
82159;SDS011;71734;50.876;7.372;2024-02-21T07:55:01;8.38;;;2.45;;
82159;SDS011;71734;50.876;7.372;2024-02-21T07:57:28;11.15;;;2.47;;
82159;SDS011;71734;50.876;7.372;2024-02-21T07:59:55;7.47;;;2.40;;
82159;SDS011;71734;50.876;7.372;2024-02-21T08:02:21;7.43;;;2.25;;
82159;SDS011;71734;50.876;7.372;2024-02-21T08:04:48;7.65;;;2.60;;
82159;SDS011;71734;50.876;7.372;2024-02-21T08:07:16;10.05;;;2.33;;
82159;SDS011;71734;50.876;7.372;2024-02-21T08:09:44;12.63;;;2.70;;
82159;SDS011;71734;50.876;7.372;2024-02-21T08:12:10;10.10;;;2.50;;
82159;SDS011;71734;50.876;7.372;2024-02-21T08:14:37;11.13;;;2.60;;
82159;SDS011;71734;50.876;7.372;2024-02-21T08:17:03;11.00;;;2.80;;
82159;SDS011;71734;50.876;7.372;2024-02-21T08:19:30;10.45;;;3.22;;
82159;SDS011;71734;50.876;7.372;2024-02-21T08:21:56;13.45;;;2.92;;
82159;SDS011;71734;50.876;7.372;2024-02-21T08:24:23;8.60;;;2.50;;
82159;SDS011;71734;50.876;7.372;2024-02-21T08:26:51;11.35;;;2.90;;
82159;SDS011;71734;50.876;7.372;2024-02-21T08:29:18;12.27;;;3.05;;
82159;SDS011;71734;50.876;7.372;2024-02-21T08:31:48;10.60;;;3.13;;
82159;SDS011;71734;50.876;7.372;2024-02-21T08:34:14;11.30;;;3.10;;
82159;SDS011;71734;50.876;7.372;2024-02-21T08:36:43;9.13;;;3.00;;
82159;SDS011;71734;50.876;7.372;2024-02-21T08:39:12;9.27;;;2.75;;
82159;SDS011;71734;50.876;7.372;2024-02-21T08:41:54;10.65;;;3.25;;
82159;SDS011;71734;50.876;7.372;2024-02-21T08:44:22;9.68;;;2.70;;
82159;SDS011;71734;50.876;7.372;2024-02-21T08:46:49;11.05;;;3.17;;
82159;SDS011;71734;50.876;7.372;2024-02-21T08:49:15;9.93;;;3.42;;
82159;SDS011;71734;50.876;7.372;2024-02-21T08:51:42;10.15;;;2.88;;
82159;SDS011;71734;50.876;7.372;2024-02-21T08:54:09;10.27;;;3.13;;
82159;SDS011;71734;50.876;7.372;2024-02-21T08:56:35;9.88;;;3.00;;
82159;SDS011;71734;50.876;7.372;2024-02-21T08:59:03;8.63;;;2.53;;
82159;SDS011;71734;50.876;7.372;2024-02-21T09:01:30;9.13;;;2.80;;
82159;SDS011;71734;50.876;7.372;2024-02-21T09:03:56;8.35;;;2.63;;
82159;SDS011;71734;50.876;7.372;2024-02-21T09:06:26;11.68;;;2.75;;
82159;SDS011;71734;50.876;7.372;2024-02-21T09:08:55;9.02;;;2.95;;
82159;SDS011;71734;50.876;7.372;2024-02-21T09:11:22;13.05;;;2.95;;
82159;SDS011;71734;50.876;7.372;2024-02-21T09:13:49;8.15;;;2.47;;
82159;SDS011;71734;50.876;7.372;2024-02-21T09:16:16;8.65;;;2.65;;
82159;SDS011;71734;50.876;7.372;2024-02-21T09:18:43;9.80;;;2.70;;
82159;SDS011;71734;50.876;7.372;2024-02-21T09:21:10;10.98;;;3.03;;
82159;SDS011;71734;50.876;7.372;2024-02-21T09:23:37;9.57;;;3.00;;
82159;SDS011;71734;50.876;7.372;2024-02-21T09:26:03;8.93;;;3.00;;
82159;SDS011;71734;50.876;7.372;2024-02-21T09:28:30;10.95;;;3.10;;
82159;SDS011;71734;50.876;7.372;2024-02-21T09:30:58;9.02;;;2.85;;
82159;SDS011;71734;50.876;7.372;2024-02-21T09:33:26;8.32;;;2.88;;
82159;SDS011;71734;50.876;7.372;2024-02-21T09:35:52;9.27;;;2.50;;
82159;SDS011;71734;50.876;7.372;2024-02-21T09:38:19;10.07;;;2.97;;
82159;SDS011;71734;50.876;7.372;2024-02-21T09:40:46;11.63;;;3.15;;
82159;SDS011;71734;50.876;7.372;2024-02-21T09:43:12;8.65;;;2.90;;
82159;SDS011;71734;50.876;7.372;2024-02-21T09:45:42;8.48;;;2.67;;
82159;SDS011;71734;50.876;7.372;2024-02-21T09:48:21;8.77;;;2.55;;
82159;SDS011;71734;50.876;7.372;2024-02-21T09:51:05;8.70;;;2.63;;
82159;SDS011;71734;50.876;7.372;2024-02-21T09:53:33;9.25;;;2.70;;
82159;SDS011;71734;50.876;7.372;2024-02-21T09:56:03;11.63;;;2.65;;
82159;SDS011;71734;50.876;7.372;2024-02-21T09:58:33;10.73;;;3.22;;
82159;SDS011;71734;50.876;7.372;2024-02-21T10:01:00;8.25;;;2.75;;
82159;SDS011;71734;50.876;7.372;2024-02-21T10:03:26;10.88;;;2.70;;
82159;SDS011;71734;50.876;7.372;2024-02-21T10:05:56;7.45;;;2.40;;
82159;SDS011;71734;50.876;7.372;2024-02-21T10:08:25;10.07;;;3.45;;
82159;SDS011;71734;50.876;7.372;2024-02-21T10:10:52;9.25;;;2.42;;
82159;SDS011;71734;50.876;7.372;2024-02-21T10:13:24;11.65;;;2.67;;
82159;SDS011;71734;50.876;7.372;2024-02-21T10:16:02;9.18;;;2.97;;
82159;SDS011;71734;50.876;7.372;2024-02-21T10:18:29;11.60;;;2.80;;
82159;SDS011;71734;50.876;7.372;2024-02-21T10:21:01;10.75;;;2.90;;
82159;SDS011;71734;50.876;7.372;2024-02-21T10:23:28;8.50;;;2.53;;
82159;SDS011;71734;50.876;7.372;2024-02-21T10:26:04;9.77;;;2.50;;
82159;SDS011;71734;50.876;7.372;2024-02-21T10:28:31;8.32;;;2.60;;
82159;SDS011;71734;50.876;7.372;2024-02-21T10:30:57;12.27;;;3.05;;
82159;SDS011;71734;50.876;7.372;2024-02-21T10:33:24;6.00;;;2.08;;
82159;SDS011;71734;50.876;7.372;2024-02-21T10:35:52;8.48;;;2.40;;
82159;SDS011;71734;50.876;7.372;2024-02-21T10:38:20;7.75;;;2.55;;
82159;SDS011;71734;50.876;7.372;2024-02-21T10:40:47;8.90;;;2.75;;
82159;SDS011;71734;50.876;7.372;2024-02-21T10:43:17;9.50;;;2.42;;
82159;SDS011;71734;50.876;7.372;2024-02-21T10:45:45;7.72;;;2.40;;
82159;SDS011;71734;50.876;7.372;2024-02-21T10:48:14;10.45;;;2.78;;
82159;SDS011;71734;50.876;7.372;2024-02-21T10:50:46;10.23;;;2.50;;
82159;SDS011;71734;50.876;7.372;2024-02-21T10:53:24;10.40;;;2.40;;
82159;SDS011;71734;50.876;7.372;2024-02-21T10:56:04;10.38;;;3.47;;
82159;SDS011;71734;50.876;7.372;2024-02-21T10:58:37;8.95;;;2.40;;
82159;SDS011;71734;50.876;7.372;2024-02-21T11:01:05;9.70;;;2.53;;
82159;SDS011;71734;50.876;7.372;2024-02-21T11:03:32;7.78;;;2.40;;
82159;SDS011;71734;50.876;7.372;2024-02-21T11:05:59;7.38;;;2.22;;
82159;SDS011;71734;50.876;7.372;2024-02-21T11:08:28;7.30;;;2.30;;
82159;SDS011;71734;50.876;7.372;2024-02-21T11:10:56;11.63;;;2.63;;
82159;SDS011;71734;50.876;7.372;2024-02-21T11:13:29;8.00;;;2.28;;
82159;SDS011;71734;50.876;7.372;2024-02-21T11:16:05;7.80;;;2.40;;
82159;SDS011;71734;50.876;7.372;2024-02-21T11:18:32;8.55;;;2.50;;
82159;SDS011;71734;50.876;7.372;2024-02-21T11:20:59;8.50;;;2.80;;
82159;SDS011;71734;50.876;7.372;2024-02-21T11:23:25;10.40;;;2.20;;
82159;SDS011;71734;50.876;7.372;2024-02-21T11:25:53;8.25;;;2.42;;
82159;SDS011;71734;50.876;7.372;2024-02-21T11:28:30;8.65;;;2.30;;
82159;SDS011;71734;50.876;7.372;2024-02-21T11:31:04;9.48;;;2.80;;
82159;SDS011;71734;50.876;7.372;2024-02-21T11:33:33;11.18;;;2.40;;
82159;SDS011;71734;50.876;7.372;2024-02-21T11:36:00;9.65;;;2.70;;
82159;SDS011;71734;50.876;7.372;2024-02-21T11:38:28;8.82;;;3.00;;
82159;SDS011;71734;50.876;7.372;2024-02-21T11:40:56;8.38;;;2.30;;
82159;SDS011;71734;50.876;7.372;2024-02-21T11:43:23;8.23;;;3.20;;
82159;SDS011;71734;50.876;7.372;2024-02-21T11:45:50;9.07;;;2.55;;
82159;SDS011;71734;50.876;7.372;2024-02-21T11:48:17;9.25;;;2.55;;
82159;SDS011;71734;50.876;7.372;2024-02-21T11:50:52;7.43;;;2.40;;
82159;SDS011;71734;50.876;7.372;2024-02-21T11:53:19;9.10;;;2.47;;
82159;SDS011;71734;50.876;7.372;2024-02-21T11:55:46;11.38;;;2.60;;
82159;SDS011;71734;50.876;7.372;2024-02-21T11:58:14;8.63;;;2.60;;
82159;SDS011;71734;50.876;7.372;2024-02-21T12:00:41;10.88;;;2.50;;
82159;SDS011;71734;50.876;7.372;2024-02-21T12:03:08;8.25;;;2.35;;
82159;SDS011;71734;50.876;7.372;2024-02-21T12:05:34;7.90;;;2.30;;
82159;SDS011;71734;50.876;7.372;2024-02-21T12:08:01;9.50;;;2.83;;
82159;SDS011;71734;50.876;7.372;2024-02-21T12:10:29;11.55;;;3.00;;
82159;SDS011;71734;50.876;7.372;2024-02-21T12:13:04;8.48;;;2.53;;
82159;SDS011;71734;50.876;7.372;2024-02-21T12:15:33;9.82;;;2.50;;
82159;SDS011;71734;50.876;7.372;2024-02-21T12:18:03;8.00;;;2.55;;
82159;SDS011;71734;50.876;7.372;2024-02-21T12:20:30;10.73;;;3.20;;
82159;SDS011;71734;50.876;7.372;2024-02-21T12:22:57;8.90;;;2.25;;
82159;SDS011;71734;50.876;7.372;2024-02-21T12:25:29;8.05;;;2.60;;
82159;SDS011;71734;50.876;7.372;2024-02-21T12:27:55;7.57;;;2.78;;
82159;SDS011;71734;50.876;7.372;2024-02-21T12:30:23;9.05;;;2.67;;
82159;SDS011;71734;50.876;7.372;2024-02-21T12:32:51;8.60;;;2.50;;
82159;SDS011;71734;50.876;7.372;2024-02-21T12:35:18;8.48;;;2.78;;
82159;SDS011;71734;50.876;7.372;2024-02-21T12:37:44;8.18;;;2.60;;
82159;SDS011;71734;50.876;7.372;2024-02-21T12:40:11;9.18;;;2.70;;
82159;SDS011;71734;50.876;7.372;2024-02-21T12:42:38;7.15;;;2.80;;
82159;SDS011;71734;50.876;7.372;2024-02-21T12:45:06;8.98;;;2.90;;
82159;SDS011;71734;50.876;7.372;2024-02-21T12:47:33;8.85;;;3.20;;
82159;SDS011;71734;50.876;7.372;2024-02-21T12:50:01;9.00;;;2.60;;
82159;SDS011;71734;50.876;7.372;2024-02-21T12:52:31;7.32;;;2.40;;
82159;SDS011;71734;50.876;7.372;2024-02-21T12:54:59;7.25;;;2.78;;
82159;SDS011;71734;50.876;7.372;2024-02-21T12:57:26;6.57;;;2.55;;
82159;SDS011;71734;50.876;7.372;2024-02-21T13:02:37;8.98;;;3.10;;
82159;SDS011;71734;50.876;7.372;2024-02-21T13:05:06;8.75;;;2.47;;
82159;SDS011;71734;50.876;7.372;2024-02-21T13:07:33;8.70;;;2.47;;
82159;SDS011;71734;50.876;7.372;2024-02-21T13:09:59;9.73;;;2.42;;
82159;SDS011;71734;50.876;7.372;2024-02-21T13:12:26;8.13;;;2.80;;
82159;SDS011;71734;50.876;7.372;2024-02-21T13:14:52;6.85;;;2.63;;
82159;SDS011;71734;50.876;7.372;2024-02-21T13:17:21;7.85;;;2.58;;
82159;SDS011;71734;50.876;7.372;2024-02-21T13:19:47;9.65;;;2.53;;
82159;SDS011;71734;50.876;7.372;2024-02-21T13:22:15;7.47;;;2.60;;
82159;SDS011;71734;50.876;7.372;2024-02-21T13:24:42;8.60;;;2.65;;
82159;SDS011;71734;50.876;7.372;2024-02-21T13:27:08;6.85;;;2.60;;
82159;SDS011;71734;50.876;7.372;2024-02-21T13:29:35;7.07;;;2.20;;
82159;SDS011;71734;50.876;7.372;2024-02-21T13:32:01;8.80;;;2.90;;
82159;SDS011;71734;50.876;7.372;2024-02-21T13:34:28;9.63;;;2.22;;
82159;SDS011;71734;50.876;7.372;2024-02-21T13:36:55;6.72;;;2.20;;
82159;SDS011;71734;50.876;7.372;2024-02-21T13:39:22;8.70;;;2.17;;
82159;SDS011;71734;50.876;7.372;2024-02-21T13:41:49;7.10;;;2.40;;
82159;SDS011;71734;50.876;7.372;2024-02-21T13:44:15;6.38;;;2.22;;
82159;SDS011;71734;50.876;7.372;2024-02-21T13:46:41;5.75;;;2.20;;
82159;SDS011;71734;50.876;7.372;2024-02-21T13:49:08;6.72;;;2.05;;
82159;SDS011;71734;50.876;7.372;2024-02-21T13:51:34;7.63;;;2.25;;
82159;SDS011;71734;50.876;7.372;2024-02-21T13:54:02;8.13;;;2.58;;
82159;SDS011;71734;50.876;7.372;2024-02-21T13:56:30;7.40;;;2.35;;
82159;SDS011;71734;50.876;7.372;2024-02-21T13:58:57;6.55;;;2.35;;
82159;SDS011;71734;50.876;7.372;2024-02-21T14:01:25;10.52;;;2.55;;
82159;SDS011;71734;50.876;7.372;2024-02-21T14:03:52;6.80;;;2.00;;
82159;SDS011;71734;50.876;7.372;2024-02-21T14:06:19;11.65;;;2.58;;
82159;SDS011;71734;50.876;7.372;2024-02-21T14:08:46;8.73;;;2.33;;
82159;SDS011;71734;50.876;7.372;2024-02-21T14:11:12;6.85;;;1.90;;
82159;SDS011;71734;50.876;7.372;2024-02-21T14:13:40;7.93;;;2.03;;
82159;SDS011;71734;50.876;7.372;2024-02-21T14:16:14;8.40;;;2.20;;
82159;SDS011;71734;50.876;7.372;2024-02-21T14:18:55;8.15;;;2.05;;
82159;SDS011;71734;50.876;7.372;2024-02-21T14:21:22;9.00;;;2.08;;
82159;SDS011;71734;50.876;7.372;2024-02-21T14:23:48;7.30;;;2.15;;
82159;SDS011;71734;50.876;7.372;2024-02-21T14:26:15;6.70;;;1.75;;
82159;SDS011;71734;50.876;7.372;2024-02-21T14:28:43;8.05;;;2.00;;
82159;SDS011;71734;50.876;7.372;2024-02-21T14:31:10;6.88;;;1.85;;
82159;SDS011;71734;50.876;7.372;2024-02-21T14:33:37;6.30;;;1.98;;
82159;SDS011;71734;50.876;7.372;2024-02-21T14:36:04;6.97;;;2.10;;
82159;SDS011;71734;50.876;7.372;2024-02-21T14:38:32;9.40;;;2.30;;
82159;SDS011;71734;50.876;7.372;2024-02-21T14:41:00;8.55;;;2.45;;
82159;SDS011;71734;50.876;7.372;2024-02-21T14:43:27;8.18;;;1.67;;
82159;SDS011;71734;50.876;7.372;2024-02-21T14:45:55;6.50;;;2.00;;
82159;SDS011;71734;50.876;7.372;2024-02-21T14:48:21;7.85;;;1.88;;
82159;SDS011;71734;50.876;7.372;2024-02-21T14:50:48;7.18;;;1.88;;
82159;SDS011;71734;50.876;7.372;2024-02-21T14:53:14;7.72;;;1.80;;